sensor_id;sensor_type;location;lat;lon;timestamp;pressure;altitude;pressure_sealevel;temperature;humidity
21300;BME280;10809;49.476;11.016;2023-03-01T00:00:11;99240.94;;;-0.04;48.28
21300;BME280;10809;49.476;11.016;2023-03-01T00:02:45;99237.50;;;-0.06;48.18
21300;BME280;10809;49.476;11.016;2023-03-01T00:05:15;99238.34;;;-0.08;48.25
21300;BME280;10809;49.476;11.016;2023-03-01T00:07:45;99246.16;;;-0.10;48.06
21300;BME280;10809;49.476;11.016;2023-03-01T00:10:16;99248.75;;;-0.11;48.22
21300;BME280;10809;49.476;11.016;2023-03-01T00:12:46;99238.34;;;-0.13;48.62
21300;BME280;10809;49.476;11.016;2023-03-01T00:15:17;99242.69;;;-0.16;48.34
21300;BME280;10809;49.476;11.016;2023-03-01T00:17:47;99240.94;;;-0.17;48.66
21300;BME280;10809;49.476;11.016;2023-03-01T00:20:17;99243.53;;;-0.19;48.87
21300;BME280;10809;49.476;11.016;2023-03-01T00:22:51;99236.59;;;-0.21;48.31
21300;BME280;10809;49.476;11.016;2023-03-01T00:25:21;99243.53;;;-0.22;48.17
21300;BME280;10809;49.476;11.016;2023-03-01T00:27:51;99233.13;;;-0.23;48.63
21300;BME280;10809;49.476;11.016;2023-03-01T00:30:22;99235.72;;;-0.25;48.52
21300;BME280;10809;49.476;11.016;2023-03-01T00:32:52;99238.31;;;-0.26;48.37
21300;BME280;10809;49.476;11.016;2023-03-01T00:35:22;99240.91;;;-0.28;48.50
21300;BME280;10809;49.476;11.016;2023-03-01T00:37:53;99238.31;;;-0.29;48.81
21300;BME280;10809;49.476;11.016;2023-03-01T00:40:28;99232.25;;;-0.31;48.48
21300;BME280;10809;49.476;11.016;2023-03-01T00:43:03;99231.38;;;-0.33;48.86
21300;BME280;10809;49.476;11.016;2023-03-01T00:45:37;99233.97;;;-0.35;48.65
21300;BME280;10809;49.476;11.016;2023-03-01T00:48:07;99234.84;;;-0.36;48.75
21300;BME280;10809;49.476;11.016;2023-03-01T00:50:38;99233.97;;;-0.38;49.05
21300;BME280;10809;49.476;11.016;2023-03-01T00:53:08;99238.28;;;-0.40;49.00
21300;BME280;10809;49.476;11.016;2023-03-01T00:55:41;99233.06;;;-0.43;49.16
21300;BME280;10809;49.476;11.016;2023-03-01T00:58:11;99225.28;;;-0.43;49.01
21300;BME280;10809;49.476;11.016;2023-03-01T01:00:42;99220.94;;;-0.44;48.74
21300;BME280;10809;49.476;11.016;2023-03-01T01:03:12;99217.47;;;-0.46;49.00
21300;BME280;10809;49.476;11.016;2023-03-01T01:05:46;99208.78;;;-0.48;48.90
21300;BME280;10809;49.476;11.016;2023-03-01T01:08:16;99203.56;;;-0.49;48.76
21300;BME280;10809;49.476;11.016;2023-03-01T01:10:47;99213.97;;;-0.51;48.77
21300;BME280;10809;49.476;11.016;2023-03-01T01:13:20;99209.63;;;-0.53;49.25
21300;BME280;10809;49.476;11.016;2023-03-01T01:15:52;99205.31;;;-0.56;48.96
21300;BME280;10809;49.476;11.016;2023-03-01T01:18:22;99197.50;;;-0.57;48.64
21300;BME280;10809;49.476;11.016;2023-03-01T01:20:53;99191.41;;;-0.59;48.79
21300;BME280;10809;49.476;11.016;2023-03-01T01:23:23;99190.53;;;-0.60;49.06
21300;BME280;10809;49.476;11.016;2023-03-01T01:25:54;99187.94;;;-0.63;49.20
21300;BME280;10809;49.476;11.016;2023-03-01T01:28:28;99183.59;;;-0.65;48.83
21300;BME280;10809;49.476;11.016;2023-03-01T01:31:01;99182.72;;;-0.67;49.31
21300;BME280;10809;49.476;11.016;2023-03-01T01:33:35;99174.06;;;-0.68;49.22
21300;BME280;10809;49.476;11.016;2023-03-01T01:36:06;99176.66;;;-0.69;49.14
21300;BME280;10809;49.476;11.016;2023-03-01T01:38:38;99175.78;;;-0.71;49.11
21300;BME280;10809;49.476;11.016;2023-03-01T01:41:09;99161.06;;;-0.74;49.12
21300;BME280;10809;49.476;11.016;2023-03-01T01:43:46;99168.84;;;-0.75;48.95
21300;BME280;10809;49.476;11.016;2023-03-01T01:46:31;99167.97;;;-0.77;49.21
21300;BME280;10809;49.476;11.016;2023-03-01T01:49:14;99167.09;;;-0.78;48.90
21300;BME280;10809;49.476;11.016;2023-03-01T01:54:47;99161.03;;;-0.81;49.07
21300;BME280;10809;49.476;11.016;2023-03-01T01:57:31;99155.81;;;-0.86;49.15
21300;BME280;10809;49.476;11.016;2023-03-01T02:00:16;99154.06;;;-0.87;49.22
21300;BME280;10809;49.476;11.016;2023-03-01T02:02:51;99148.03;;;-0.89;49.69
21300;BME280;10809;49.476;11.016;2023-03-01T02:05:44;99145.41;;;-0.92;49.27
21300;BME280;10809;49.476;11.016;2023-03-01T02:08:18;99143.66;;;-0.93;49.36
21300;BME280;10809;49.476;11.016;2023-03-01T02:10:50;99139.31;;;-0.95;49.72
21300;BME280;10809;49.476;11.016;2023-03-01T02:13:22;99142.75;;;-0.98;49.36
21300;BME280;10809;49.476;11.016;2023-03-01T02:15:52;99139.31;;;-1.00;49.56
21300;BME280;10809;49.476;11.016;2023-03-01T02:18:27;99139.31;;;-1.01;49.39
21300;BME280;10809;49.476;11.016;2023-03-01T02:24:28;99134.94;;;-1.05;49.62
21300;BME280;10809;49.476;11.016;2023-03-01T02:27:04;99129.75;;;-1.07;49.43
21300;BME280;10809;49.476;11.016;2023-03-01T02:29:34;99128.88;;;-1.09;49.74
21300;BME280;10809;49.476;11.016;2023-03-01T02:32:05;99125.41;;;-1.11;49.78
21300;BME280;10809;49.476;11.016;2023-03-01T02:34:35;99115.88;;;-1.12;49.63
21300;BME280;10809;49.476;11.016;2023-03-01T02:37:11;99128.00;;;-1.13;49.67
21300;BME280;10809;49.476;11.016;2023-03-01T02:39:47;99118.47;;;-1.15;49.91
21300;BME280;10809;49.476;11.016;2023-03-01T02:42:26;99116.72;;;-1.16;49.80
21300;BME280;10809;49.476;11.016;2023-03-01T02:44:59;99109.78;;;-1.17;49.93
21300;BME280;10809;49.476;11.016;2023-03-01T02:47:30;99106.31;;;-1.19;49.58
21300;BME280;10809;49.476;11.016;2023-03-01T02:50:00;99103.72;;;-1.21;49.89
21300;BME280;10809;49.476;11.016;2023-03-01T02:52:47;99106.31;;;-1.22;49.59
21300;BME280;10809;49.476;11.016;2023-03-01T02:55:22;99106.31;;;-1.22;50.07
21300;BME280;10809;49.476;11.016;2023-03-01T02:57:53;99103.69;;;-1.24;50.19
21300;BME280;10809;49.476;11.016;2023-03-01T03:00:28;99096.78;;;-1.23;50.10
21300;BME280;10809;49.476;11.016;2023-03-01T03:03:01;99099.38;;;-1.23;49.88
21300;BME280;10809;49.476;11.016;2023-03-01T03:05:32;99096.78;;;-1.23;50.07
21300;BME280;10809;49.476;11.016;2023-03-01T03:08:06;99101.97;;;-1.23;50.15
21300;BME280;10809;49.476;11.016;2023-03-01T03:10:40;99099.38;;;-1.23;49.96
21300;BME280;10809;49.476;11.016;2023-03-01T03:13:13;99099.38;;;-1.23;49.76
21300;BME280;10809;49.476;11.016;2023-03-01T03:15:44;99095.06;;;-1.24;49.76
21300;BME280;10809;49.476;11.016;2023-03-01T03:18:16;99096.78;;;-1.25;50.37
21300;BME280;10809;49.476;11.016;2023-03-01T03:20:47;99094.19;;;-1.25;50.05
21300;BME280;10809;49.476;11.016;2023-03-01T03:23:22;99099.38;;;-1.26;49.76
21300;BME280;10809;49.476;11.016;2023-03-01T03:25:53;99085.50;;;-1.27;50.24
21300;BME280;10809;49.476;11.016;2023-03-01T03:28:23;99085.50;;;-1.28;50.06
21300;BME280;10809;49.476;11.016;2023-03-01T03:30:57;99076.84;;;-1.30;50.13
21300;BME280;10809;49.476;11.016;2023-03-01T03:33:34;99081.16;;;-1.32;50.23
21300;BME280;10809;49.476;11.016;2023-03-01T03:36:05;99084.63;;;-1.33;49.99
21300;BME280;10809;49.476;11.016;2023-03-01T03:38:35;99081.16;;;-1.35;50.33
21300;BME280;10809;49.476;11.016;2023-03-01T03:41:07;99090.66;;;-1.37;49.81
21300;BME280;10809;49.476;11.016;2023-03-01T03:43:39;99086.34;;;-1.38;49.82
21300;BME280;10809;49.476;11.016;2023-03-01T03:46:13;99084.63;;;-1.41;50.08
21300;BME280;10809;49.476;11.016;2023-03-01T03:48:49;99085.44;;;-1.43;50.48
21300;BME280;10809;49.476;11.016;2023-03-01T03:51:20;99081.13;;;-1.44;50.19
21300;BME280;10809;49.476;11.016;2023-03-01T03:53:52;99082.84;;;-1.46;50.26
21300;BME280;10809;49.476;11.016;2023-03-01T03:56:23;99083.69;;;-1.49;50.37
21300;BME280;10809;49.476;11.016;2023-03-01T03:58:55;99075.91;;;-1.50;49.88
21300;BME280;10809;49.476;11.016;2023-03-01T04:01:26;99072.44;;;-1.52;50.14
21300;BME280;10809;49.476;11.016;2023-03-01T04:03:56;99073.28;;;-1.55;50.02
21300;BME280;10809;49.476;11.016;2023-03-01T04:06:35;99080.19;;;-1.55;50.03
21300;BME280;10809;49.476;11.016;2023-03-01T04:09:06;99077.59;;;-1.57;50.20
21300;BME280;10809;49.476;11.016;2023-03-01T04:11:36;99075.00;;;-1.58;50.35
21300;BME280;10809;49.476;11.016;2023-03-01T04:14:09;99073.25;;;-1.61;50.11
21300;BME280;10809;49.476;11.016;2023-03-01T04:16:39;99080.16;;;-1.61;50.43
21300;BME280;10809;49.476;11.016;2023-03-01T04:19:10;99085.38;;;-1.61;50.46
21300;BME280;10809;49.476;11.016;2023-03-01T04:21:43;99084.47;;;-1.65;50.08
21300;BME280;10809;49.476;11.016;2023-03-01T04:24:17;99094.84;;;-1.66;50.49
21300;BME280;10809;49.476;11.016;2023-03-01T04:26:47;99085.31;;;-1.69;50.07
21300;BME280;10809;49.476;11.016;2023-03-01T04:29:17;99088.78;;;-1.70;50.18
21300;BME280;10809;49.476;11.016;2023-03-01T04:31:57;99083.59;;;-1.71;50.33
21300;BME280;10809;49.476;11.016;2023-03-01T04:34:28;99087.91;;;-1.72;50.48
21300;BME280;10809;49.476;11.016;2023-03-01T04:36:58;99087.03;;;-1.74;50.74
21300;BME280;10809;49.476;11.016;2023-03-01T04:39:28;99097.41;;;-1.75;50.26
21300;BME280;10809;49.476;11.016;2023-03-01T04:41:59;99098.25;;;-1.76;50.32
21300;BME280;10809;49.476;11.016;2023-03-01T04:44:32;99092.19;;;-1.78;50.45
21300;BME280;10809;49.476;11.016;2023-03-01T04:47:06;99093.94;;;-1.77;50.55
21300;BME280;10809;49.476;11.016;2023-03-01T04:49:36;99089.59;;;-1.80;50.62
21300;BME280;10809;49.476;11.016;2023-03-01T04:52:06;99088.75;;;-1.80;50.43
21300;BME280;10809;49.476;11.016;2023-03-01T04:54:37;99090.44;;;-1.82;50.37
21300;BME280;10809;49.476;11.016;2023-03-01T04:57:07;99088.72;;;-1.83;50.79
21300;BME280;10809;49.476;11.016;2023-03-01T04:59:38;99094.75;;;-1.84;50.73
21300;BME280;10809;49.476;11.016;2023-03-01T05:02:08;99092.13;;;-1.87;50.64
21300;BME280;10809;49.476;11.016;2023-03-01T05:04:42;99086.09;;;-1.89;50.91
21300;BME280;10809;49.476;11.016;2023-03-01T05:07:12;99099.06;;;-1.91;50.32
21300;BME280;10809;49.476;11.016;2023-03-01T05:09:46;99093.88;;;-1.91;50.63
21300;BME280;10809;49.476;11.016;2023-03-01T05:12:16;99086.91;;;-1.93;50.89
21300;BME280;10809;49.476;11.016;2023-03-01T05:14:50;99082.59;;;-1.94;50.54
21300;BME280;10809;49.476;11.016;2023-03-01T05:17:21;99074.78;;;-1.97;50.59
21300;BME280;10809;49.476;11.016;2023-03-01T05:19:51;99086.00;;;-1.98;50.82
21300;BME280;10809;49.476;11.016;2023-03-01T05:22:22;99086.00;;;-2.00;50.78
21300;BME280;10809;49.476;11.016;2023-03-01T05:24:53;99081.66;;;-2.02;50.68
21300;BME280;10809;49.476;11.016;2023-03-01T05:27:24;99076.47;;;-2.05;50.93
21300;BME280;10809;49.476;11.016;2023-03-01T05:30:01;99085.94;;;-2.06;50.73
21300;BME280;10809;49.476;11.016;2023-03-01T05:32:49;99085.94;;;-2.07;50.77
21300;BME280;10809;49.476;11.016;2023-03-01T05:35:25;99077.31;;;-2.09;50.47
21300;BME280;10809;49.476;11.016;2023-03-01T05:37:56;99076.41;;;-2.11;50.69
21300;BME280;10809;49.476;11.016;2023-03-01T05:40:26;99078.13;;;-2.13;50.97
21300;BME280;10809;49.476;11.016;2023-03-01T05:43:00;99078.09;;;-2.16;50.97
21300;BME280;10809;49.476;11.016;2023-03-01T05:45:31;99067.72;;;-2.18;50.72
21300;BME280;10809;49.476;11.016;2023-03-01T05:48:05;99080.69;;;-2.18;51.32
21300;BME280;10809;49.476;11.016;2023-03-01T05:50:41;99075.50;;;-2.19;50.96
21300;BME280;10809;49.476;11.016;2023-03-01T05:53:19;99062.50;;;-2.22;50.76
21300;BME280;10809;49.476;11.016;2023-03-01T05:55:54;99063.38;;;-2.22;51.08
21300;BME280;10809;49.476;11.016;2023-03-01T05:58:24;99065.06;;;-2.25;51.04
21300;BME280;10809;49.476;11.016;2023-03-01T06:00:54;99065.03;;;-2.30;51.02
21300;BME280;10809;49.476;11.016;2023-03-01T06:03:25;99059.81;;;-2.36;50.93
21300;BME280;10809;49.476;11.016;2023-03-01T06:05:58;99063.25;;;-2.40;51.10
21300;BME280;10809;49.476;11.016;2023-03-01T06:08:29;99071.00;;;-2.41;51.32
21300;BME280;10809;49.476;11.016;2023-03-01T06:10:59;99070.13;;;-2.43;51.09
21300;BME280;10809;49.476;11.016;2023-03-01T06:13:29;99062.34;;;-2.43;51.03
21300;BME280;10809;49.476;11.016;2023-03-01T06:16:00;99068.41;;;-2.44;51.00
21300;BME280;10809;49.476;11.016;2023-03-01T06:18:30;99064.09;;;-2.45;51.58
21300;BME280;10809;49.476;11.016;2023-03-01T06:21:04;99062.34;;;-2.43;51.21
21300;BME280;10809;49.476;11.016;2023-03-01T06:23:35;99058.03;;;-2.43;51.58
21300;BME280;10809;49.476;11.016;2023-03-01T06:26:07;99054.59;;;-2.40;51.46
21300;BME280;10809;49.476;11.016;2023-03-01T06:28:41;99056.38;;;-2.36;51.61
21300;BME280;10809;49.476;11.016;2023-03-01T06:31:14;99059.84;;;-2.33;51.54
21300;BME280;10809;49.476;11.016;2023-03-01T06:33:45;99056.44;;;-2.29;51.87
21300;BME280;10809;49.476;11.016;2023-03-01T06:36:21;99060.75;;;-2.26;51.87
21300;BME280;10809;49.476;11.016;2023-03-01T06:38:58;99056.47;;;-2.23;51.77
21300;BME280;10809;49.476;11.016;2023-03-01T06:41:28;99055.59;;;-2.20;51.95
21300;BME280;10809;49.476;11.016;2023-03-01T06:43:59;99051.31;;;-2.17;51.89
21300;BME280;10809;49.476;11.016;2023-03-01T06:46:33;99055.66;;;-2.14;51.78
21300;BME280;10809;49.476;11.016;2023-03-01T06:49:03;99060.84;;;-2.11;51.97
21300;BME280;10809;49.476;11.016;2023-03-01T06:51:41;99062.59;;;-2.07;51.86
21300;BME280;10809;49.476;11.016;2023-03-01T06:54:18;99060.88;;;-2.05;51.90
21300;BME280;10809;49.476;11.016;2023-03-01T06:56:49;99057.44;;;-2.01;52.06
21300;BME280;10809;49.476;11.016;2023-03-01T06:59:19;99054.03;;;-1.97;51.78
21300;BME280;10809;49.476;11.016;2023-03-01T07:01:50;99054.06;;;-1.94;51.68
21300;BME280;10809;49.476;11.016;2023-03-01T07:04:20;99047.16;;;-1.92;52.28
21300;BME280;10809;49.476;11.016;2023-03-01T07:06:57;99047.19;;;-1.88;52.20
21300;BME280;10809;49.476;11.016;2023-03-01T07:09:31;99045.44;;;-1.84;52.00
21300;BME280;10809;49.476;11.016;2023-03-01T07:12:01;99047.22;;;-1.82;51.90
21300;BME280;10809;49.476;11.016;2023-03-01T07:14:31;99049.81;;;-1.79;51.79
21300;BME280;10809;49.476;11.016;2023-03-01T07:17:02;99042.03;;;-1.77;51.86
21300;BME280;10809;49.476;11.016;2023-03-01T07:19:32;99048.97;;;-1.72;52.04
21300;BME280;10809;49.476;11.016;2023-03-01T07:22:06;99045.50;;;-1.69;52.19
21300;BME280;10809;49.476;11.016;2023-03-01T07:24:44;99045.53;;;-1.66;52.20
21300;BME280;10809;49.476;11.016;2023-03-01T07:27:14;99041.22;;;-1.61;52.40
21300;BME280;10809;49.476;11.016;2023-03-01T07:29:53;99037.78;;;-1.57;52.05
21300;BME280;10809;49.476;11.016;2023-03-01T07:32:27;99035.25;;;-1.44;53.32
21300;BME280;10809;49.476;11.016;2023-03-01T07:35:00;99029.25;;;-1.19;54.18
21300;BME280;10809;49.476;11.016;2023-03-01T07:37:31;99021.50;;;-0.84;55.28
21300;BME280;10809;49.476;11.016;2023-03-01T07:40:01;99030.19;;;-0.47;55.65
21300;BME280;10809;49.476;11.016;2023-03-01T07:42:38;99024.09;;;-0.07;55.49
21300;BME280;10809;49.476;11.016;2023-03-01T07:45:09;99022.25;;;0.32;55.81
21300;BME280;10809;49.476;11.016;2023-03-01T07:47:39;99008.16;;;0.72;55.98
21300;BME280;10809;49.476;11.016;2023-03-01T07:50:10;99005.28;;;1.16;56.29
21300;BME280;10809;49.476;11.016;2023-03-01T07:52:41;99004.03;;;1.61;56.05
21300;BME280;10809;49.476;11.016;2023-03-01T07:55:11;99000.09;;;2.07;56.05
21300;BME280;10809;49.476;11.016;2023-03-01T07:57:42;98987.34;;;2.54;56.15
21300;BME280;10809;49.476;11.016;2023-03-01T08:00:16;98987.63;;;2.98;54.68
21300;BME280;10809;49.476;11.016;2023-03-01T08:02:46;98987.91;;;3.36;54.96
21300;BME280;10809;49.476;11.016;2023-03-01T08:05:17;98990.78;;;3.73;54.34
21300;BME280;10809;49.476;11.016;2023-03-01T08:07:53;98992.75;;;4.07;53.81
21300;BME280;10809;49.476;11.016;2023-03-01T08:10:24;98998.31;;;4.37;53.54
21300;BME280;10809;49.476;11.016;2023-03-01T08:12:54;98984.69;;;4.61;52.89
21300;BME280;10809;49.476;11.016;2023-03-01T08:15:24;98992.94;;;4.84;52.42
21300;BME280;10809;49.476;11.016;2023-03-01T08:17:55;98987.28;;;5.02;51.81
21300;BME280;10809;49.476;11.016;2023-03-01T08:20:25;98985.09;;;5.19;51.47
21300;BME280;10809;49.476;11.016;2023-03-01T08:23:02;98976.03;;;5.35;50.96
21300;BME280;10809;49.476;11.016;2023-03-01T08:25:32;98976.56;;;5.49;50.58
21300;BME280;10809;49.476;11.016;2023-03-01T08:28:05;98971.00;;;5.61;50.34
21300;BME280;10809;49.476;11.016;2023-03-01T08:30:36;98969.91;;;5.69;49.74
21300;BME280;10809;49.476;11.016;2023-03-01T08:33:06;98965.34;;;5.76;49.62
21300;BME280;10809;49.476;11.016;2023-03-01T08:35:43;98959.06;;;5.81;49.76
21300;BME280;10809;49.476;11.016;2023-03-01T08:38:16;98958.06;;;5.87;49.07
21300;BME280;10809;49.476;11.016;2023-03-01T08:40:46;98957.16;;;5.88;48.80
21300;BME280;10809;49.476;11.016;2023-03-01T08:43:20;98945.72;;;5.89;48.40
21300;BME280;10809;49.476;11.016;2023-03-01T08:45:50;98951.84;;;5.89;48.29
21300;BME280;10809;49.476;11.016;2023-03-01T08:48:25;98952.72;;;5.90;48.02
21300;BME280;10809;49.476;11.016;2023-03-01T08:51:17;98930.88;;;5.88;48.52
21300;BME280;10809;49.476;11.016;2023-03-01T08:53:48;98937.13;;;5.84;47.68
21300;BME280;10809;49.476;11.016;2023-03-01T08:56:19;98938.97;;;5.80;47.63
21300;BME280;10809;49.476;11.016;2023-03-01T08:58:49;98941.75;;;5.74;47.64
21300;BME280;10809;49.476;11.016;2023-03-01T09:01:20;98933.16;;;5.68;47.11
21300;BME280;10809;49.476;11.016;2023-03-01T09:03:50;98938.59;;;5.60;46.68
21300;BME280;10809;49.476;11.016;2023-03-01T09:06:20;98944.09;;;5.51;46.64
21300;BME280;10809;49.476;11.016;2023-03-01T09:08:51;98939.94;;;5.43;47.09
21300;BME280;10809;49.476;11.016;2023-03-01T09:11:22;98934.00;;;5.35;46.66
21300;BME280;10809;49.476;11.016;2023-03-01T09:13:52;98928.97;;;5.27;46.79
21300;BME280;10809;49.476;11.016;2023-03-01T09:16:23;98924.69;;;5.20;46.36
21300;BME280;10809;49.476;11.016;2023-03-01T09:18:54;98924.00;;;5.14;46.30
21300;BME280;10809;49.476;11.016;2023-03-01T09:21:24;98925.06;;;5.05;45.99
21300;BME280;10809;49.476;11.016;2023-03-01T09:23:56;98918.25;;;4.98;45.88
21300;BME280;10809;49.476;11.016;2023-03-01T09:26:27;98920.22;;;4.89;45.76
21300;BME280;10809;49.476;11.016;2023-03-01T09:29:00;98917.81;;;4.80;45.81
21300;BME280;10809;49.476;11.016;2023-03-01T09:31:31;98907.53;;;4.71;46.06
21300;BME280;10809;49.476;11.016;2023-03-01T09:34:01;98913.81;;;4.64;46.11
21300;BME280;10809;49.476;11.016;2023-03-01T09:36:38;98912.16;;;4.60;45.96
21300;BME280;10809;49.476;11.016;2023-03-01T09:39:11;98908.75;;;4.56;45.96
21300;BME280;10809;49.476;11.016;2023-03-01T09:44:31;98899.28;;;4.49;46.31
21300;BME280;10809;49.476;11.016;2023-03-01T09:47:03;98906.34;;;4.47;46.04
21300;BME280;10809;49.476;11.016;2023-03-01T09:49:39;98911.59;;;4.46;46.03
21300;BME280;10809;49.476;11.016;2023-03-01T09:55:30;98895.88;;;4.46;46.16
21300;BME280;10809;49.476;11.016;2023-03-01T10:01:38;98900.97;;;4.52;46.32
21300;BME280;10809;49.476;11.016;2023-03-01T10:10:21;98893.72;;;4.63;45.76
21300;BME280;10809;49.476;11.016;2023-03-01T10:12:54;98898.91;;;4.66;45.78
21300;BME280;10809;49.476;11.016;2023-03-01T10:15:34;98890.97;;;4.69;45.95
21300;BME280;10809;49.476;11.016;2023-03-01T10:18:15;98890.88;;;4.73;45.84
21300;BME280;10809;49.476;11.016;2023-03-01T10:20:57;98882.03;;;4.77;45.64
21300;BME280;10809;49.476;11.016;2023-03-01T10:23:31;98879.31;;;4.82;45.39
21300;BME280;10809;49.476;11.016;2023-03-01T10:29:09;98871.22;;;4.91;45.92
21300;BME280;10809;49.476;11.016;2023-03-01T10:31:41;98867.59;;;4.95;45.96
21300;BME280;10809;49.476;11.016;2023-03-01T10:34:28;98868.31;;;5.01;46.05
21300;BME280;10809;49.476;11.016;2023-03-01T10:37:09;98873.38;;;5.09;46.17
21300;BME280;10809;49.476;11.016;2023-03-01T10:42:49;98867.75;;;5.25;46.12
21300;BME280;10809;49.476;11.016;2023-03-01T10:45:39;98860.59;;;5.32;45.45
21300;BME280;10809;49.476;11.016;2023-03-01T10:48:15;98857.84;;;5.36;45.29
21300;BME280;10809;49.476;11.016;2023-03-01T10:53:42;98849.66;;;5.47;45.49
21300;BME280;10809;49.476;11.016;2023-03-01T10:56:14;98851.25;;;5.52;44.89
21300;BME280;10809;49.476;11.016;2023-03-01T10:59:03;98835.38;;;5.57;45.48
21300;BME280;10809;49.476;11.016;2023-03-01T11:01:35;98828.25;;;5.62;45.06
21300;BME280;10809;49.476;11.016;2023-03-01T11:06:42;98806.06;;;5.72;45.29
21300;BME280;10809;49.476;11.016;2023-03-01T11:09:21;98799.75;;;5.79;44.90
21300;BME280;10809;49.476;11.016;2023-03-01T11:11:54;98797.78;;;5.87;44.98
21300;BME280;10809;49.476;11.016;2023-03-01T11:14:27;98788.78;;;5.94;45.18
21300;BME280;10809;49.476;11.016;2023-03-01T11:17:05;98788.56;;;6.01;45.17
21300;BME280;10809;49.476;11.016;2023-03-01T11:19:42;98779.53;;;6.10;44.38
21300;BME280;10809;49.476;11.016;2023-03-01T11:22:22;98775.81;;;6.17;44.65
21300;BME280;10809;49.476;11.016;2023-03-01T11:24:55;98777.34;;;6.24;44.64
21300;BME280;10809;49.476;11.016;2023-03-01T11:27:35;98764.94;;;6.29;44.60
21300;BME280;10809;49.476;11.016;2023-03-01T11:33:39;98761.84;;;6.43;44.27
21300;BME280;10809;49.476;11.016;2023-03-01T11:36:41;98763.38;;;6.50;44.41
21300;BME280;10809;49.476;11.016;2023-03-01T11:39:47;98761.38;;;6.58;44.52
21300;BME280;10809;49.476;11.016;2023-03-01T11:48:56;98735.16;;;6.81;44.30
21300;BME280;10809;49.476;11.016;2023-03-01T12:00:55;98722.00;;;7.07;43.74
21300;BME280;10809;49.476;11.016;2023-03-01T12:18:25;98693.41;;;7.44;42.57
21300;BME280;10809;49.476;11.016;2023-03-01T12:26:31;98683.34;;;7.55;42.84
21300;BME280;10809;49.476;11.016;2023-03-01T12:29:25;98676.97;;;7.60;42.96
21300;BME280;10809;49.476;11.016;2023-03-01T12:32:20;98668.00;;;7.66;42.71
21300;BME280;10809;49.476;11.016;2023-03-01T12:35:09;98666.91;;;7.71;42.76
21300;BME280;10809;49.476;11.016;2023-03-01T12:46:52;98640.56;;;7.93;42.57
21300;BME280;10809;49.476;11.016;2023-03-01T12:49:28;98650.88;;;7.99;42.34
21300;BME280;10809;49.476;11.016;2023-03-01T12:55:08;98626.69;;;8.10;41.88
21300;BME280;10809;49.476;11.016;2023-03-01T12:57:54;98628.22;;;8.15;41.60
21300;BME280;10809;49.476;11.016;2023-03-01T13:04:06;98621.72;;;8.24;42.18
21300;BME280;10809;49.476;11.016;2023-03-01T13:07:04;98622.38;;;8.29;42.38
21300;BME280;10809;49.476;11.016;2023-03-01T13:26:21;98600.00;;;8.59;41.22
21300;BME280;10809;49.476;11.016;2023-03-01T13:28:58;98605.16;;;8.62;40.95
21300;BME280;10809;49.476;11.016;2023-03-01T13:34:02;98605.03;;;8.65;40.93
21300;BME280;10809;49.476;11.016;2023-03-01T13:41:57;98592.28;;;8.74;40.76
21300;BME280;10809;49.476;11.016;2023-03-01T13:44:37;98588.66;;;8.77;40.87
21300;BME280;10809;49.476;11.016;2023-03-01T13:50:00;98583.13;;;8.83;40.17
21300;BME280;10809;49.476;11.016;2023-03-01T13:52:44;98584.00;;;8.83;40.73
21300;BME280;10809;49.476;11.016;2023-03-01T13:57:58;98580.34;;;8.86;40.66
21300;BME280;10809;49.476;11.016;2023-03-01T14:00:39;98588.25;;;8.86;40.77
21300;BME280;10809;49.476;11.016;2023-03-01T14:03:19;98585.56;;;8.87;40.87
21300;BME280;10809;49.476;11.016;2023-03-01T14:06:07;98582.84;;;8.89;40.72
21300;BME280;10809;49.476;11.016;2023-03-01T14:08:43;98586.22;;;8.92;40.85
21300;BME280;10809;49.476;11.016;2023-03-01T14:20:09;98581.41;;;9.20;40.80
21300;BME280;10809;49.476;11.016;2023-03-01T14:22:42;98573.97;;;9.28;40.90
21300;BME280;10809;49.476;11.016;2023-03-01T14:25:26;98578.97;;;9.34;40.76
21300;BME280;10809;49.476;11.016;2023-03-01T14:30:54;98567.03;;;9.44;40.47
21300;BME280;10809;49.476;11.016;2023-03-01T14:33:28;98590.75;;;9.46;40.01
21300;BME280;10809;49.476;11.016;2023-03-01T14:36:02;98573.19;;;9.45;40.29
21300;BME280;10809;49.476;11.016;2023-03-01T14:38:40;98569.69;;;9.44;40.20
21300;BME280;10809;49.476;11.016;2023-03-01T14:43:53;98582.22;;;9.41;40.15
21300;BME280;10809;49.476;11.016;2023-03-01T14:46:37;98569.97;;;9.38;40.23
21300;BME280;10809;49.476;11.016;2023-03-01T14:49:14;98580.63;;;9.37;40.09
21300;BME280;10809;49.476;11.016;2023-03-01T14:51:57;98577.22;;;9.35;40.34
21300;BME280;10809;49.476;11.016;2023-03-01T14:54:41;98573.78;;;9.33;40.06
21300;BME280;10809;49.476;11.016;2023-03-01T14:57:19;98579.91;;;9.33;40.56
21300;BME280;10809;49.476;11.016;2023-03-01T14:59:54;98584.19;;;9.36;40.23
21300;BME280;10809;49.476;11.016;2023-03-01T15:02:26;98582.28;;;9.39;40.44
21300;BME280;10809;49.476;11.016;2023-03-01T15:05:01;98573.06;;;9.48;40.50
21300;BME280;10809;49.476;11.016;2023-03-01T15:07:36;98578.78;;;9.57;40.43
21300;BME280;10809;49.476;11.016;2023-03-01T15:10:21;98573.03;;;9.67;40.32
21300;BME280;10809;49.476;11.016;2023-03-01T15:12:52;98565.81;;;9.70;39.55
21300;BME280;10809;49.476;11.016;2023-03-01T15:15:33;98570.19;;;9.71;39.96
21300;BME280;10809;49.476;11.016;2023-03-01T15:18:20;98579.97;;;9.69;40.03
21300;BME280;10809;49.476;11.016;2023-03-01T15:20:54;98576.59;;;9.66;40.09
21300;BME280;10809;49.476;11.016;2023-03-01T15:23:28;98576.81;;;9.61;40.04
21300;BME280;10809;49.476;11.016;2023-03-01T15:26:00;98581.50;;;9.56;39.81
21300;BME280;10809;49.476;11.016;2023-03-01T15:28:38;98583.47;;;9.51;39.79
21300;BME280;10809;49.476;11.016;2023-03-01T15:31:24;98585.47;;;9.46;39.73
21300;BME280;10809;49.476;11.016;2023-03-01T15:34:34;98575.25;;;9.38;40.45
21300;BME280;10809;49.476;11.016;2023-03-01T15:40:27;98590.66;;;9.29;40.36
21300;BME280;10809;49.476;11.016;2023-03-01T15:43:36;98598.88;;;9.23;40.47
21300;BME280;10809;49.476;11.016;2023-03-01T15:46:23;98588.59;;;9.17;40.28
21300;BME280;10809;49.476;11.016;2023-03-01T15:49:05;98584.38;;;9.13;40.41